Abu Musa, Iran

10:46 PM IRST on February 23, 2017 (GMT +0330)
Bandar Lengeh | | Change Station

Elev 66 ft 26.53 °N, 54.82 °E | Updated 1 hour ago

Partly Cloudy
Partly Cloudy
68 °F
Feels Like 68 °F
N
7
Wind Variable Wind from NE

Today
High -- | Low -- °F
--% Chance of Precip.
Yesterday
High -- | Low -- °F
Precip. -- in
Pressure 30.01 in
Visibility 3.7 miles
Clouds Scattered Clouds 2500 ft
Mostly Cloudy 8000 ft
Dew Point 59 °F
Humidity 73%
Rainfall 0.00 in
Snow Depth Not available.
6:19 AM 5:48 PM
Waning Crescent, 9% visible
METAR OIBL 231800Z 04006KT 6000 SCT025 BKN080 20/15 Q1016
Pressure 30.01 in
Visibility 3.7 miles
Clouds Scattered Clouds 2500 ft
Mostly Cloudy 8000 ft
Dew Point 59 °F
Humidity 73%
Rainfall 0.00 in
Snow Depth Not available.
6:19 AM 5:48 PM
Waning Crescent, 9% visible
METAR OIBL 231800Z 04006KT 6000 SCT025 BKN080 20/15 Q1016

Get Your Daily Forecast Email!

Thanks for signing up!

Be on the lookout for a verification email in your inbox.

You'll start receiving the daily forecast at 8 AM.

×

10-Day Weather Forecast

No radar image for this location.
×

Almanac

Astronomy

Feb. 23, 2017 Rise Set
Actual Time
Civil Twilight
Nautical Twilight
Astronomical Twilight
Moon
Length of Visible Light
Length of Day
Tomorrow will be .
, % of the Moon is Illuminated

Today's Extremes

Country Highs Country Lows

Community

WunderPhotos

Upload Photos

1,962,540 photos uploaded!

WunderBlog® & News

Nearby

Air Quality

  Air Quality AQ Index Pollutant
Not available.

Snow Depth

Station Depth Elevation

Earthquake Activity

City Distance Mag. Time & Date
Minimum magnitude displayed is 2.5.

Coastal Water Temperatures

Place Temperature

Stations

Nearby Weather Stations

Station Location Temp. Windchill Dew Point Humidity Wind Precip. Elev Updated Type